Portada
METAR-TAF:

METAR-TAF

Aeroports :

Al-Kuwait, Kuwait

latitud: 29-13N, longitud: 047-59E, altitud: 55 m

Observació

L'informe es va fer fa 1 hora i 5 minuts, a les 10:00 UTC
Vent 19 kt del Oest/Nord-Oest
Temperatura 22°C
Humitat 31%
Pressió 1015 hPa
Visibilitat: 2500 m
Cel clar
(forta) , Pols estès

METAR: OKBK 261000Z 30019KT 2500 +BLDU SKC 22/04 Q1015 NOSIG

Hora: 14:05 (11:05 UTC)

Pronòstic

L'informe es va fer fa 6 hores i 20 minuts, a les 04:45 UTC
Pronòstic vàlid del 26 a les 06 UTC al 27 a les 12 UTC
Vent 15 kt del Nord/Nord-Oest amb ràfegues de 25 kt
Visibilitat: 6000 m
Temporalment
l' 26 a les 06 UTC al 26 a les 15 UTC
Visibilitat: 3000 m
torb alta de pols

TAF: OKBK 260445Z 2606/2712 33015G25KT 6000 NSC TEMPO 2606/2615 3000 BLDU

Observacions i pronòstics meteorològics de més de 4000 aeroports (METAR i TAF).

Les estacions disponibles són els punts grocs i vermells al mapa.

Posi el ratolí al punt desitjat per veure el nom de l'estació.

Feu clic per veure les observacions i els pronòstics meteorològics.

Per canviar el mapa: feu clic els botons verds amb una creu de color negre per apropar; al botó verd amb un guió per allunyar la imatge; o en les fletxes verdes per a mapes adjacents.


METAR-TAF: